Terminal Aerodrome Forecast
Issued by NWS Pocatello, ID

Home | Current Version | Previous Version | Text Only | Print | Product List | Glossary On
Versions: 1 2 3 4 5 6 7 8 9 10 11 12
000
FTUS45 KPIH 061730
TAFBYI
TAF
KBYI 061730Z 0618/0718 29011G18KT P6SM SCT050 BKN090
     FM070200 24008KT P6SM VCSH SCT050 BKN100
     FM070700 22006KT P6SM -SHRA SCT025 OVC040
     FM071500 23007KT P6SM VCSH SCT030 OVC050=

USA.gov is the U.S. government's official web portal to all federal, state and local government web resources and services.